Weather observations for the past three days for
Needles, Needles Airport
Metric (Imperial)
Date Time (pdt) Wind (kph) Vis. (km) Weather Sky Cond. Temperature (ºC) Relative Humidity Wind Chill (°C) Heat Index (°C) Pressure Precipitation (cm)
Air Dwpt 6 hour altimeter (cm) sea level (mb) 1 hr 3 hr 6 hr
Max. Min.
10 04:56 N 7 16.09 Fair CLR 24.4 -8.9 32.2 23.9 10% 24 75.67 1005.5
10 03:56 NW 15 16.09 Fair CLR 25.6 -7.8 10% 25 75.64 1004.9
10 02:56 W 11 16.09 Fair CLR 25.6 -8.3 10% 25 75.62 1004.6
10 01:56 Calm 16.09 Fair CLR 28.9 -7.2 9% 27 75.59 1004.1
10 00:56 NW 6 16.09 Fair CLR 30 -8.3 8% 28 75.57 1003.8
09 23:56 SW 19 16.09 Fair CLR 31.7 -7.8 7% 30 75.54 1003.4
09 22:56 SW 20 16.09 Fair CLR 32.2 -7.8 40.6 32.2 7% 30 75.51 1003.3
09 21:56 SW 22 16.09 Fair CLR 34.4 -7.8 6% 32 75.51 1003.0
09 20:56 SW 19 16.09 Fair CLR 35 -7.2 6% 32 75.46 1002.6
09 19:56 SW 15 16.09 Fair CLR 36.7 -6.7 6% 34 75.41 1001.9
09 18:56 SW 15 16.09 Fair CLR 38.9 -5 6% 36 75.39 1001.4
09 17:56 S 9 16.09 Fair CLR 39.4 -3.3 6% 36 75.36 1001.3
09 16:56 SW 17 16.09 Fair CLR 40 -2.8 41.1 36.1 7% 36 75.39 1001.5
09 15:56 Vrbl 7 G 28 16.09 Fair CLR 40 -2.8 7% 36 75.41 1001.8
09 14:56 S 19 G 28 16.09 Fair CLR 40.6 -3.3 6% 37 75.49 1002.8
09 13:56 Vrbl 11 G 28 16.09 Fair CLR 39.4 -2.2 7% 36 75.57 1003.7
09 12:56 E 9 16.09 Fair CLR 38.9 0 9% 36 75.62 1004.2
09 11:56 E 11 16.09 Fair CLR 37.8 1.7 10% 35 75.67 1005.1
09 10:56 Vrbl 7 16.09 Fair CLR 35.6 1.7 36.1 23.9 12% 33 75.72 1005.7
09 09:56 E 7 16.09 Fair CLR 33.9 1.1 12% 31 75.72 1006.0
09 08:56 Calm 16.09 Fair CLR 30.6 0.6 14% 29 75.74 1006.4
09 07:56 E 6 16.09 Fair CLR 27.8 -1.1 15% 27 75.72 1006.1
09 06:56 Calm 16.09 Fair CLR 26.7 0.6 18% 26 75.69 1005.7
09 05:56 SE 6 16.09 Fair CLR 25 -2.2 16% 25 75.64 1005.0
09 04:56 SE 9 16.09 Fair CLR 25 -2.2 32.8 24.4 16% 25 75.62 1004.6
09 03:56 Calm 16.09 Fair CLR 26.1 1.1 20% 26 75.59 1004.3
09 02:56 Calm 16.09 Fair CLR 26.7 -0.6 17% 26 75.59 1004.5
09 01:56 W 9 16.09 Fair CLR 29.4 0 15% 28 75.59 1004.1
09 00:56 Calm 16.09 Fair CLR 32.8 -0.6 12% 30 75.59 1004.2
08 23:56 SW 28 16.09 Fair CLR 31.7 -1.7 11% 30 75.57 1003.8
08 22:56 SW 19 16.09 Fair CLR 32.8 -2.2 40 32.8 10% 30 75.57 1003.9
08 21:56 SW 20 16.09 Fair CLR 33.9 -5.6 7% 31 75.57 1004.0
08 20:56 SW 19 16.09 Fair CLR 34.4 -6.7 7% 32 75.51 1003.4
08 19:56 SW 19 16.09 Fair CLR 36.7 -6.1 6% 34 75.46 1002.7
08 18:56 SW 22 G 39 16.09 Fair CLR 38.3 -5.6 6% 35 75.44 1002.2
08 17:56 SW 20 16.09 Fair CLR 39.4 -4.4 6% 36 75.44 1002.2
08 16:56 S 13 G 35 16.09 Fair CLR 39.4 -3.9 40.6 34.4 6% 36 75.46 1002.7
08 15:56 Vrbl 9 G 39 16.09 Fair CLR 40 -2.8 7% 36 75.51 1003.2
08 14:56 Vrbl 6 16.09 Fair CLR 38.9 -2.8 7% 36 75.57 1004.1
08 13:56 N 11 16.09 Fair CLR 38.9 -1.7 8% 36 75.64 1005.0
08 12:56 NE 17 16.09 Fair CLR 37.8 1.1 10% 35 75.69 1005.6
08 11:56 E 11 16.09 Fair CLR 36.1 1.7 11% 33 75.77 1006.6
08 10:56 Calm 16.09 Fair CLR 34.4 1.7 35 21.7 13% 32 75.82 1007.3
08 09:56 E 7 16.09 Fair CLR 32.2 2.2 15% 30 75.84 1007.9
08 08:56 SE 7 16.09 Fair CLR 28.9 -0.6 15% 27 75.84 1008.0
08 07:56 E 6 16.09 Fair CLR 26.7 -2.2 15% 26 75.87 1008.2
08 06:56 N 6 16.09 Fair CLR 25 -2.2 16% 25 75.82 1007.6
08 05:56 Calm 16.09 Fair CLR 22.2 -2.8 19% 75.77 1007.0
08 04:56 Calm 16.09 Fair CLR 22.2 -5 28.9 21.1 16% 75.72 1006.5
08 03:56 Calm 16.09 Fair CLR 22.8 -6.1 14% 75.69 1006.0
08 02:56 Calm 16.09 Fair CLR 23.9 -5.6 14% 24 75.69 1006.0
08 01:56 Calm 16.09 Fair CLR 24.4 -4.4 14% 24 75.69 1006.0
08 00:56 SW 6 16.09 Fair CLR 27.2 -3.9 13% 26 75.69 1005.9
07 23:56 Calm 16.09 Fair CLR 28.3 -3.9 12% 27 75.67 1005.5
07 22:56 SW 15 16.09 Fair CLR 28.9 -5.6 36.7 28.3 10% 27 75.67 1005.7
07 21:56 SW 19 16.09 Fair CLR 29.4 -6.7 9% 28 75.69 1006.0
07 20:56 SW 15 16.09 Fair CLR 30 -7.2 8% 28 75.69 1005.9
07 19:56 SW 9 16.09 Fair CLR 32.2 -6.7 8% 30 75.64 1005.3
07 18:56 Calm 16.09 Fair CLR 35.6 -6.1 6% 33 75.59 1004.8
07 17:56 NW 9 16.09 Fair CLR 36.1 -6.7 6% 33 75.59 1005.0
07 16:56 NW 11 G 28 16.09 Fair CLR 36.1 -6.7 37.2 31.7 6% 33 75.62 1005.2
07 15:56 Vrbl 7 G 28 16.09 Fair CLR 36.1 -7.2 6% 33 75.67 1005.7
07 14:56 NE 22 G 33 16.09 Fair CLR 36.7 -6.7 6% 34 75.72 1006.4
07 13:56 N 13 G 33 16.09 Fair CLR 35.6 -6.7 6% 33 75.82 1007.6
07 12:56 N 22 G 35 16.09 Fair CLR 35.6 -5 7% 33 75.87 1008.3
07 11:56 Vrbl 9 16.09 Fair CLR 33.3 -7.8 6% 31 75.95 1009.5
07 10:56 N 19 16.09 Fair CLR 32.2 -6.7 32.2 17.2 8% 30 76 1010.1
07 08:56 N 9 16.09 Fair CLR 27.2 0.6 18% 26 76.07 1011.4
07 07:56 Calm 16.09 Fair CLR 23.9 0.6 22% 25 76.1 1011.8
07 06:56 W 7 16.09 Fair CLR 21.7 0.6 25% 76.1 1011.7
07 05:56 NW 9 16.09 Fair CLR 17.2 0 31% 76.05 1011.3
Date Time (pdt) Wind (kph) Vis. (km) Weather Sky Cond. Air Dwpt Max. Min. Relative Humidity Wind Chill (°C) Heat Index (°C) altimeter (cm) sea level (mb) 1 hr 3 hr 6 hr
6 hour
Temperature (ºC) Pressure Precipitation (cm)